createdAt,value
2019-05-15T00:01:41.040Z,44.30
2019-05-15T00:04:10.032Z,44.20
2019-05-15T00:06:39.605Z,44.40
2019-05-15T00:09:09.246Z,44.10
2019-05-15T00:11:39.102Z,44.50
2019-05-15T00:14:08.811Z,44.50
2019-05-15T00:16:38.812Z,44.40
2019-05-15T00:19:08.776Z,44.40
2019-05-15T00:21:38.590Z,44.50
2019-05-15T00:24:12.975Z,44.50
2019-05-15T00:26:39.089Z,44.60
2019-05-15T00:29:15.090Z,44.70
2019-05-15T00:31:39.875Z,44.80
2019-05-15T00:34:12.736Z,44.90
2019-05-15T00:36:40.359Z,45.00
2019-05-15T00:39:09.741Z,44.90
2019-05-15T00:41:50.841Z,45.20
2019-05-15T00:44:10.295Z,45.20
2019-05-15T00:46:39.654Z,45.10
2019-05-15T00:49:09.021Z,45.20
2019-05-15T00:51:38.992Z,46.10
2019-05-15T00:54:08.750Z,45.30
2019-05-15T00:56:39.089Z,45.30
2019-05-15T00:59:08.608Z,45.60
2019-05-15T01:01:38.309Z,45.70
2019-05-15T01:04:08.134Z,45.70
2019-05-15T01:06:38.924Z,45.60
2019-05-15T01:09:08.529Z,45.80
2019-05-15T01:11:38.293Z,45.80
2019-05-15T01:14:11.950Z,45.80
2019-05-15T01:16:38.909Z,46.00
2019-05-15T01:19:09.239Z,46.00
2019-05-15T01:21:39.148Z,46.30
2019-05-15T01:24:08.567Z,46.30
2019-05-15T01:26:38.499Z,46.40
2019-05-15T01:29:09.097Z,46.40
2019-05-15T01:31:38.513Z,46.50
2019-05-15T01:34:09.051Z,46.40
2019-05-15T01:36:38.534Z,46.60
2019-05-15T01:39:08.163Z,46.60
2019-05-15T01:41:38.612Z,46.70
2019-05-15T01:44:08.991Z,46.70
2019-05-15T01:46:39.287Z,46.70
2019-05-15T01:49:08.997Z,46.80
2019-05-15T01:51:38.642Z,46.90
2019-05-15T01:54:09.070Z,46.90
2019-05-15T01:56:38.892Z,47.00
2019-05-15T01:59:08.752Z,47.10
2019-05-15T02:01:39.149Z,47.20
2019-05-15T02:04:08.838Z,47.10
2019-05-15T02:06:39.063Z,47.20
2019-05-15T02:09:09.348Z,47.30
2019-05-15T02:11:38.713Z,47.40
2019-05-15T02:14:08.429Z,47.50
2019-05-15T02:16:39.305Z,47.50
2019-05-15T02:19:09.110Z,47.50
2019-05-15T02:21:38.557Z,47.90
2019-05-15T02:24:08.091Z,47.90
2019-05-15T02:26:38.882Z,48.10
2019-05-15T02:29:13.138Z,48.10
2019-05-15T02:31:40.113Z,48.10
2019-05-15T02:34:10.443Z,48.10
2019-05-15T02:36:40.386Z,48.10
2019-05-15T02:39:30.624Z,48.30
2019-05-15T02:42:00.082Z,48.40
2019-05-15T02:44:29.480Z,48.30
2019-05-15T02:46:59.036Z,48.70
2019-05-15T02:49:30.117Z,48.70
2019-05-15T02:52:00.433Z,49.00
2019-05-15T02:54:30.374Z,49.00
2019-05-15T02:57:00.095Z,49.20
2019-05-15T02:59:29.683Z,48.90
2019-05-15T03:01:59.609Z,49.00
2019-05-15T03:04:29.473Z,49.20
2019-05-15T03:07:00.332Z,49.30
2019-05-15T03:09:30.166Z,49.50
2019-05-15T03:11:59.988Z,49.50
2019-05-15T03:14:29.716Z,49.50
2019-05-15T03:16:59.843Z,49.70
2019-05-15T03:19:30.125Z,49.80
2019-05-15T03:22:00.099Z,50.00
2019-05-15T03:24:29.430Z,50.00
2019-05-15T03:26:59.451Z,50.20
2019-05-15T03:29:29.391Z,50.20
2019-05-15T03:32:14.138Z,50.20
2019-05-15T03:34:38.430Z,50.30
2019-05-15T03:37:04.005Z,50.40
2019-05-15T03:39:33.336Z,50.30
2019-05-15T03:42:02.705Z,50.40
2019-05-15T03:44:32.064Z,50.60
2019-05-15T03:47:01.428Z,50.40
2019-05-15T03:49:30.811Z,50.10
2019-05-15T03:52:00.179Z,50.30
2019-05-15T03:54:29.642Z,50.60
2019-05-15T03:56:59.182Z,50.70
2019-05-15T03:59:29.457Z,50.70
2019-05-15T04:02:00.115Z,50.60
2019-05-15T04:04:29.847Z,50.80
2019-05-15T04:06:59.843Z,50.50
2019-05-15T04:09:29.630Z,50.70
2019-05-15T04:12:00.060Z,50.70
2019-05-15T04:14:29.871Z,50.50
2019-05-15T04:16:59.676Z,50.50
2019-05-15T04:19:29.852Z,50.60
2019-05-15T04:22:00.237Z,50.50
2019-05-15T04:24:31.462Z,50.60
2019-05-15T04:27:06.397Z,50.50
2019-05-15T04:29:34.774Z,50.60
2019-05-15T04:32:06.050Z,50.10
2019-05-15T04:34:35.795Z,50.20
2019-05-15T04:37:05.162Z,50.80
2019-05-15T04:39:34.529Z,50.20
2019-05-15T04:42:03.924Z,50.00
2019-05-15T04:44:33.339Z,49.90
2019-05-15T04:47:02.711Z,50.40
2019-05-15T04:49:32.091Z,50.00
2019-05-15T04:52:03.746Z,50.10
2019-05-15T04:54:32.371Z,50.10
2019-05-15T04:57:02.056Z,50.10
2019-05-15T04:59:31.428Z,50.00
2019-05-15T05:02:16.292Z,50.00
2019-05-15T05:04:32.082Z,49.90
2019-05-15T05:07:01.440Z,49.80
2019-05-15T05:09:30.818Z,49.60
2019-05-15T05:12:00.194Z,49.60
2019-05-15T05:14:29.566Z,49.80
2019-05-15T05:16:59.379Z,49.60
2019-05-15T05:19:28.812Z,49.40
2019-05-15T05:21:58.590Z,49.40
2019-05-15T05:24:28.451Z,49.40
2019-05-15T05:26:58.217Z,49.60
2019-05-15T05:29:28.108Z,49.40
2019-05-15T05:31:58.570Z,49.40
2019-05-15T05:34:28.433Z,49.20
2019-05-15T05:36:58.914Z,49.20
2019-05-15T05:39:29.443Z,49.10
2019-05-15T05:41:59.517Z,49.20
2019-05-15T05:44:29.292Z,49.10
2019-05-15T05:46:58.933Z,49.00
2019-05-15T05:49:28.801Z,48.90
2019-05-15T05:51:58.825Z,48.90
2019-05-15T05:54:28.906Z,48.60
2019-05-15T05:56:58.740Z,48.50
2019-05-15T05:59:28.585Z,48.50
2019-05-15T06:01:59.034Z,48.30
2019-05-15T06:04:28.856Z,48.30
2019-05-15T06:07:07.033Z,48.10
2019-05-15T06:09:30.501Z,48.10
2019-05-15T06:11:59.948Z,47.90
2019-05-15T06:14:29.366Z,47.80
2019-05-15T06:16:59.038Z,47.70
2019-05-15T06:19:31.240Z,47.50
2019-05-15T06:22:01.045Z,47.70
2019-05-15T06:24:30.762Z,47.40
2019-05-15T06:27:01.057Z,47.30
2019-05-15T06:29:30.425Z,47.10
2019-05-15T06:31:59.791Z,47.00
2019-05-15T06:34:29.174Z,46.80
2019-05-15T06:36:58.931Z,46.70
2019-05-15T06:39:28.513Z,46.50
2019-05-15T06:41:58.835Z,46.10
2019-05-15T06:44:28.304Z,46.00
2019-05-15T06:46:58.758Z,46.00
2019-05-15T06:49:28.743Z,45.60
2019-05-15T06:51:58.313Z,45.00
2019-05-15T06:54:28.531Z,44.20
2019-05-15T06:56:58.470Z,43.40
2019-05-15T06:59:28.785Z,43.00
2019-05-15T07:01:59.322Z,42.70
2019-05-15T07:04:29.477Z,42.40
2019-05-15T07:06:58.851Z,41.90
2019-05-15T07:09:28.692Z,41.80
2019-05-15T07:11:59.070Z,41.50
2019-05-15T07:14:29.431Z,41.10
2019-05-15T07:16:59.344Z,40.60
2019-05-15T07:19:28.851Z,39.80
2019-05-15T07:21:58.286Z,39.80
2019-05-15T07:24:28.955Z,39.40
2019-05-15T07:26:59.351Z,39.00
2019-05-15T07:29:30.027Z,39.50
2019-05-15T07:31:59.749Z,39.00
2019-05-15T07:34:29.129Z,38.70
2019-05-15T07:36:59.146Z,38.80
2019-05-15T07:39:29.075Z,38.30
2019-05-15T07:41:58.476Z,38.00
2019-05-15T07:44:28.630Z,38.00
2019-05-15T07:46:58.655Z,37.50
2019-05-15T07:49:28.891Z,37.40
2019-05-15T07:51:59.191Z,36.80
2019-05-15T07:54:28.965Z,36.40
2019-05-15T07:56:58.332Z,35.90
2019-05-15T07:59:28.024Z,36.20
2019-05-15T08:01:58.163Z,35.90
2019-05-15T08:04:30.611Z,36.10
2019-05-15T08:06:59.466Z,36.20
2019-05-15T08:09:30.331Z,36.00
2019-05-15T08:12:03.254Z,36.00
2019-05-15T08:14:31.438Z,35.80
2019-05-15T08:17:00.815Z,35.90
2019-05-15T08:19:30.300Z,35.70
2019-05-15T08:21:59.696Z,35.70
2019-05-15T08:24:29.868Z,35.70
2019-05-15T08:26:59.439Z,35.80
2019-05-15T08:29:28.928Z,36.00
2019-05-15T08:31:58.932Z,35.60
2019-05-15T08:34:28.824Z,35.50
2019-05-15T08:36:59.051Z,35.40
2019-05-15T08:39:28.985Z,35.30
2019-05-15T08:41:58.949Z,35.50
2019-05-15T08:44:29.338Z,35.00
2019-05-15T08:46:59.200Z,34.90
2019-05-15T08:49:28.614Z,34.70
2019-05-15T08:51:58.524Z,34.70
2019-05-15T08:54:29.006Z,34.40
2019-05-15T08:56:59.329Z,33.90
2019-05-15T08:59:29.431Z,33.60
2019-05-15T09:01:59.114Z,33.60
2019-05-15T09:04:34.573Z,33.10
2019-05-15T09:07:01.317Z,32.80
2019-05-15T09:09:31.012Z,32.80
2019-05-15T09:12:00.465Z,32.70
2019-05-15T09:14:30.031Z,32.30
2019-05-15T09:16:59.404Z,32.20
2019-05-15T09:19:29.196Z,32.40
2019-05-15T09:21:58.658Z,32.40
2019-05-15T09:24:28.727Z,31.30
2019-05-15T09:26:59.429Z,31.70
2019-05-15T09:29:29.025Z,31.80
2019-05-15T09:31:58.959Z,31.90
2019-05-15T09:34:44.957Z,32.20
2019-05-15T09:37:00.095Z,32.00
2019-05-15T09:39:29.608Z,31.40
2019-05-15T09:41:59.353Z,31.60
2019-05-15T09:44:28.750Z,31.70
2019-05-15T09:46:58.564Z,32.00
2019-05-15T09:49:29.726Z,31.80
2019-05-15T09:51:59.100Z,31.90
2019-05-15T09:54:29.346Z,31.80
2019-05-15T09:56:58.868Z,31.70
2019-05-15T09:59:28.333Z,31.70
2019-05-15T10:01:58.860Z,31.70
2019-05-15T10:04:29.092Z,31.70
2019-05-15T10:06:58.742Z,31.60
2019-05-15T10:09:28.536Z,31.60
2019-05-15T10:11:58.275Z,32.10
2019-05-15T10:14:29.650Z,31.50
2019-05-15T10:16:59.179Z,31.60
2019-05-15T10:19:29.123Z,31.40
2019-05-15T10:21:59.652Z,31.20
2019-05-15T10:24:29.050Z,31.40
2019-05-15T10:26:59.058Z,31.50
2019-05-15T10:29:28.436Z,31.60
2019-05-15T10:31:57.797Z,31.60
2019-05-15T10:34:28.912Z,31.80
2019-05-15T10:36:58.916Z,31.60
2019-05-15T10:39:28.897Z,31.70
2019-05-15T10:41:58.546Z,31.50
2019-05-15T10:44:28.647Z,31.40
2019-05-15T10:46:58.612Z,31.80
2019-05-15T10:49:28.734Z,32.00
2019-05-15T10:51:58.150Z,32.10
2019-05-15T10:54:29.121Z,31.80
2019-05-15T10:57:00.914Z,31.70
2019-05-15T10:59:29.672Z,32.00
2019-05-15T11:01:59.248Z,32.00
2019-05-15T11:04:28.948Z,32.10
2019-05-15T11:06:58.547Z,32.00
2019-05-15T11:09:28.670Z,32.00
2019-05-15T11:11:58.571Z,32.10
2019-05-15T11:14:28.783Z,32.10
2019-05-15T11:16:58.929Z,32.20
2019-05-15T11:19:35.490Z,32.60
2019-05-15T11:22:00.146Z,32.20
2019-05-15T11:24:32.472Z,32.10
2019-05-15T11:27:00.931Z,32.20
2019-05-15T11:29:30.344Z,32.30
2019-05-15T11:31:59.714Z,32.20
2019-05-15T11:34:29.247Z,32.30
2019-05-15T11:36:59.298Z,32.50
2019-05-15T11:39:29.069Z,32.50
2019-05-15T11:41:58.415Z,32.50
2019-05-15T11:44:28.327Z,32.40
2019-05-15T11:46:58.653Z,32.50
2019-05-15T11:49:29.241Z,32.30
2019-05-15T11:52:00.496Z,32.20
2019-05-15T11:54:29.726Z,32.00
2019-05-15T11:56:59.811Z,32.20
2019-05-15T11:59:30.113Z,32.20
2019-05-15T12:01:59.703Z,32.20
2019-05-15T12:04:33.729Z,32.10
2019-05-15T12:07:02.646Z,32.00
2019-05-15T12:09:31.358Z,32.10
2019-05-15T12:12:00.793Z,32.10
2019-05-15T12:14:30.157Z,31.90
2019-05-15T12:17:09.638Z,31.60
2019-05-15T12:19:31.021Z,31.70
2019-05-15T12:22:00.790Z,31.60
2019-05-15T12:24:35.098Z,31.80
2019-05-15T12:27:13.651Z,31.40
2019-05-15T12:29:32.686Z,31.40
2019-05-15T12:34:33.637Z,31.40
2019-05-15T12:37:02.991Z,31.00
2019-05-15T12:39:32.360Z,30.60
2019-05-15T12:59:40.553Z,30.60
2019-05-15T13:02:10.335Z,30.90
2019-05-15T13:04:39.964Z,31.90
2019-05-15T13:07:13.841Z,31.70
2019-05-15T13:09:40.422Z,31.90
2019-05-15T13:12:09.874Z,32.10
2019-05-15T13:14:39.237Z,32.40
2019-05-15T13:17:08.612Z,32.40
2019-05-15T13:19:38.811Z,32.80
2019-05-15T13:22:17.613Z,33.20
2019-05-15T13:24:52.972Z,33.80
2019-05-15T13:27:22.340Z,34.50
2019-05-15T13:29:51.716Z,35.00
2019-05-15T13:32:21.120Z,35.70
2019-05-15T13:34:50.539Z,35.70
2019-05-15T13:37:27.339Z,36.20
2019-05-15T13:39:51.112Z,36.80
2019-05-15T13:42:20.499Z,37.20
2019-05-15T13:44:49.865Z,37.20
2019-05-15T13:47:19.616Z,37.20
2019-05-15T13:49:48.977Z,38.00
2019-05-15T13:52:18.843Z,38.20
2019-05-15T13:54:48.462Z,38.90
2019-05-15T13:57:18.114Z,39.20
2019-05-15T13:59:48.333Z,39.00
2019-05-15T14:02:18.706Z,38.70
2019-05-15T14:04:49.158Z,39.30
2019-05-15T14:07:19.368Z,39.60
2019-05-15T14:09:49.731Z,39.30
2019-05-15T14:12:19.102Z,39.10
2019-05-15T14:14:49.044Z,39.40
2019-05-15T14:17:18.535Z,39.50
2019-05-15T14:19:48.614Z,39.30
2019-05-15T14:22:18.362Z,40.20
2019-05-15T14:24:48.856Z,39.50
2019-05-15T14:27:19.765Z,39.10
2019-05-15T14:29:49.148Z,40.10
2019-05-15T14:32:34.117Z,38.70
2019-05-15T14:34:51.154Z,38.60
2019-05-15T14:37:20.562Z,38.50
2019-05-15T14:39:52.299Z,38.30
2019-05-15T14:42:21.078Z,38.20
2019-05-15T14:44:50.932Z,38.10
2019-05-15T14:47:20.593Z,38.00
2019-05-15T14:49:49.946Z,37.70
2019-05-15T14:52:19.325Z,37.60
2019-05-15T14:54:49.070Z,37.40
2019-05-15T14:57:18.477Z,37.40
2019-05-15T14:59:48.830Z,37.40
2019-05-15T15:02:18.969Z,37.50
2019-05-15T15:04:48.788Z,37.50
2019-05-15T15:07:18.922Z,37.60
2019-05-15T15:09:48.809Z,37.40
2019-05-15T15:12:18.882Z,37.40
2019-05-15T15:14:48.705Z,37.30
2019-05-15T15:17:19.545Z,37.30
2019-05-15T15:19:51.528Z,37.30
2019-05-15T15:22:20.599Z,37.30
2019-05-15T15:24:50.299Z,36.90
2019-05-15T15:27:19.853Z,37.50
2019-05-15T15:29:49.229Z,37.60
2019-05-15T15:32:18.611Z,37.90
2019-05-15T15:34:48.082Z,37.70
2019-05-15T15:37:17.437Z,37.50
2019-05-15T15:39:48.214Z,37.60
2019-05-15T15:42:17.776Z,37.60
2019-05-15T15:44:48.865Z,37.70
2019-05-15T15:47:18.636Z,38.30
2019-05-15T15:49:48.291Z,37.60
2019-05-15T15:52:18.093Z,37.50
2019-05-15T15:54:47.620Z,37.40
2019-05-15T15:57:19.172Z,37.60
2019-05-15T15:59:49.147Z,37.50
2019-05-15T16:02:18.789Z,37.60
2019-05-15T16:04:48.479Z,37.60
2019-05-15T16:07:18.157Z,38.20
2019-05-15T16:09:48.330Z,37.50
2019-05-15T16:12:18.573Z,37.60
2019-05-15T16:14:48.851Z,37.60
2019-05-15T16:17:18.470Z,37.50
2019-05-15T16:19:49.163Z,37.60
2019-05-15T16:22:19.083Z,37.50
2019-05-15T16:24:49.495Z,37.50
2019-05-15T16:27:18.880Z,37.50
2019-05-15T16:29:48.245Z,37.50
2019-05-15T16:32:21.124Z,37.60
2019-05-15T16:34:49.170Z,37.70
2019-05-15T16:37:18.865Z,38.10
2019-05-15T16:39:48.826Z,38.20
2019-05-15T16:42:18.498Z,38.40
2019-05-15T16:44:48.995Z,38.60
2019-05-15T16:47:19.117Z,38.80
2019-05-15T16:49:48.673Z,38.90
2019-05-15T16:52:18.251Z,39.10
2019-05-15T16:54:49.000Z,39.20
2019-05-15T16:57:18.593Z,39.40
2019-05-15T16:59:48.187Z,39.40
2019-05-15T17:02:18.776Z,39.50
2019-05-15T17:04:48.932Z,39.70
2019-05-15T17:07:18.689Z,39.70
2019-05-15T17:09:48.587Z,39.90
2019-05-15T17:12:17.951Z,40.00
2019-05-15T17:14:48.602Z,40.20
2019-05-15T17:17:18.445Z,40.30
2019-05-15T17:19:48.545Z,40.50
2019-05-15T17:22:18.555Z,40.90
2019-05-15T17:24:48.843Z,41.00
2019-05-15T17:27:18.677Z,41.60
2019-05-15T17:29:49.062Z,41.90
2019-05-15T17:32:19.230Z,42.20
2019-05-15T17:34:49.048Z,42.30
2019-05-15T17:37:18.421Z,42.60
2019-05-15T17:39:48.498Z,42.70
2019-05-15T17:42:18.358Z,43.30
2019-05-15T17:44:48.793Z,44.10
2019-05-15T17:47:18.287Z,44.70
2019-05-15T17:49:48.164Z,45.50
2019-05-15T17:52:18.414Z,46.00
2019-05-15T17:54:49.121Z,46.50
2019-05-15T17:57:19.461Z,46.90
2019-05-15T17:59:48.985Z,47.50
2019-05-15T18:02:18.962Z,48.00
2019-05-15T18:04:48.452Z,48.40
2019-05-15T18:07:17.821Z,48.90
2019-05-15T18:09:53.879Z,48.80
2019-05-15T18:12:18.820Z,49.10
2019-05-15T18:14:48.196Z,49.00
2019-05-15T18:17:18.692Z,49.60
2019-05-15T18:19:48.726Z,49.60
2019-05-15T18:22:18.229Z,49.50
2019-05-15T18:24:48.556Z,49.20
2019-05-15T18:27:18.634Z,49.50
2019-05-15T18:29:48.286Z,49.80
2019-05-15T18:32:18.928Z,49.40
2019-05-15T18:34:48.971Z,49.50
2019-05-15T18:37:19.223Z,49.70
2019-05-15T18:40:02.219Z,49.50
2019-05-15T18:42:20.224Z,49.80
2019-05-15T18:44:49.587Z,49.50
2019-05-15T18:47:19.574Z,50.10
2019-05-15T18:50:03.255Z,49.40
2019-05-15T18:52:20.029Z,49.80
2019-05-15T18:54:49.905Z,49.40
2019-05-15T18:57:19.277Z,49.50
2019-05-15T18:59:48.811Z,49.50
2019-05-15T19:02:19.167Z,49.40
2019-05-15T19:04:49.136Z,49.60
2019-05-15T19:07:19.165Z,49.50
2019-05-15T19:09:48.631Z,49.70
2019-05-15T19:12:18.107Z,49.90
2019-05-15T19:14:49.414Z,49.60
2019-05-15T19:17:18.923Z,49.60
2019-05-15T19:19:48.331Z,49.40
2019-05-15T19:22:19.284Z,49.70
2019-05-15T19:24:49.229Z,49.50
2019-05-15T19:27:18.871Z,49.40
2019-05-15T19:29:48.479Z,49.40
2019-05-15T19:32:17.883Z,49.60
2019-05-15T19:34:48.398Z,49.60
2019-05-15T19:37:18.464Z,49.60
2019-05-15T19:39:48.256Z,49.60
2019-05-15T19:42:18.260Z,49.60
2019-05-15T19:44:48.475Z,49.70
2019-05-15T19:47:19.695Z,50.00
2019-05-15T19:49:49.534Z,51.30
2019-05-15T19:52:18.900Z,49.50
2019-05-15T19:54:48.641Z,49.60
2019-05-15T19:57:18.686Z,49.60
2019-05-15T19:59:48.825Z,49.50
2019-05-15T20:02:18.499Z,49.40
2019-05-15T20:04:49.085Z,49.40
2019-05-15T20:07:18.750Z,49.70
2019-05-15T20:09:48.351Z,49.30
2019-05-15T20:12:18.539Z,49.10
2019-05-15T20:14:48.855Z,49.10
2019-05-15T20:17:18.443Z,49.20
2019-05-15T20:19:48.835Z,48.90
2019-05-15T20:22:18.888Z,48.90
2019-05-15T20:24:48.312Z,48.80
2019-05-15T20:27:18.764Z,48.50
2019-05-15T20:29:48.730Z,48.50
2019-05-15T20:32:19.103Z,48.50
2019-05-15T20:34:48.482Z,48.50
2019-05-15T20:37:18.358Z,48.50
2019-05-15T20:39:49.212Z,48.60
2019-05-15T20:42:19.424Z,48.60
2019-05-15T20:44:49.180Z,48.50
2019-05-15T20:47:18.899Z,48.50
2019-05-15T20:49:48.677Z,48.60
2019-05-15T20:52:21.764Z,48.50
2019-05-15T20:54:51.592Z,48.50
2019-05-15T20:57:20.936Z,48.50
2019-05-15T20:59:50.794Z,48.30
2019-05-15T21:02:20.197Z,48.20
2019-05-15T21:04:49.557Z,48.20
2019-05-15T21:07:33.295Z,48.20
2019-05-15T21:09:50.049Z,48.20
2019-05-15T21:12:19.476Z,48.70
2019-05-15T21:14:48.890Z,48.00
2019-05-15T21:17:19.996Z,48.20
2019-05-15T21:19:49.551Z,48.00
2019-05-15T21:22:18.957Z,48.00
2019-05-15T21:24:48.355Z,47.20
2019-05-15T21:27:22.776Z,47.90
2019-05-15T21:29:49.114Z,47.80
2019-05-15T21:32:19.599Z,47.90
2019-05-15T21:34:49.523Z,47.70
2019-05-15T21:37:18.880Z,47.70
2019-05-15T21:39:48.681Z,47.70
2019-05-15T21:42:18.454Z,47.70
2019-05-15T21:44:48.989Z,47.80
2019-05-15T21:47:18.894Z,47.70
2019-05-15T21:49:48.464Z,48.30
2019-05-15T21:52:18.552Z,47.70
2019-05-15T21:54:50.401Z,47.70
2019-05-15T21:57:33.034Z,47.60
2019-05-15T21:59:51.086Z,47.50
2019-05-15T22:02:20.711Z,47.60
2019-05-15T22:04:55.640Z,47.50
2019-05-15T22:07:21.600Z,47.50
2019-05-15T22:09:51.607Z,47.40
2019-05-15T22:12:21.281Z,47.50
2019-05-15T22:14:50.654Z,47.40
2019-05-15T22:17:20.148Z,47.40
2019-05-15T22:19:49.497Z,47.40
2019-05-15T22:22:18.871Z,47.30
2019-05-15T22:24:48.447Z,47.30
2019-05-15T22:27:18.016Z,47.50
2019-05-15T22:29:48.922Z,47.50
2019-05-15T22:32:19.323Z,47.50
2019-05-15T22:34:52.533Z,47.50
2019-05-15T22:37:21.597Z,47.60
2019-05-15T22:39:50.885Z,47.70
2019-05-15T22:42:20.258Z,47.60
2019-05-15T22:44:49.624Z,47.50
2019-05-15T22:47:19.937Z,47.70
2019-05-15T22:49:49.375Z,47.80
2019-05-15T22:52:18.737Z,47.80
2019-05-15T22:54:48.509Z,48.10
2019-05-15T22:57:17.877Z,48.20
2019-05-15T22:59:48.738Z,48.30
2019-05-15T23:02:18.185Z,49.10
2019-05-15T23:04:47.725Z,49.30
2019-05-15T23:07:18.966Z,49.80
2019-05-15T23:09:48.969Z,50.10
2019-05-15T23:12:18.456Z,51.00
2019-05-15T23:14:48.534Z,50.70
2019-05-15T23:17:18.274Z,51.20
2019-05-15T23:19:48.624Z,51.40
2019-05-15T23:22:18.669Z,51.60
2019-05-15T23:24:48.371Z,51.90
2019-05-15T23:27:18.198Z,51.10
2019-05-15T23:29:49.106Z,52.30
2019-05-15T23:32:18.537Z,52.90
2019-05-15T23:34:49.131Z,52.90
2019-05-15T23:37:18.934Z,53.00
2019-05-15T23:39:48.871Z,53.30
2019-05-15T23:42:18.631Z,53.10
2019-05-15T23:44:48.711Z,53.40
2019-05-15T23:47:18.212Z,53.60
2019-05-15T23:49:48.584Z,53.80
2019-05-15T23:52:18.075Z,54.10
2019-05-15T23:54:47.462Z,54.20
2019-05-15T23:57:18.029Z,54.30
2019-05-15T23:59:47.780Z,54.40
